createdAt,value
2023-02-27T00:00:19.321Z,3.40
2023-02-27T00:01:22.341Z,3.20
2023-02-27T00:02:25.422Z,3.20
2023-02-27T00:03:28.900Z,3.10
2023-02-27T00:04:30.592Z,3.20
2023-02-27T00:05:36.166Z,3.20
2023-02-27T00:06:39.381Z,3.20
2023-02-27T00:07:42.792Z,3.20
2023-02-27T00:08:53.563Z,3.20
2023-02-27T00:09:55.535Z,3.10
2023-02-27T00:10:58.465Z,3.10
2023-02-27T00:12:00.455Z,3.20
2023-02-27T00:13:02.292Z,3.20
2023-02-27T00:14:05.791Z,3.20
2023-02-27T00:15:17.094Z,3.10
2023-02-27T00:16:19.242Z,3.10
2023-02-27T00:17:22.603Z,3.10
2023-02-27T00:18:24.396Z,3.30
2023-02-27T00:19:27.320Z,3.30
2023-02-27T00:20:29.476Z,3.20
2023-02-27T00:21:32.364Z,3.10
2023-02-27T00:22:35.653Z,3.00
2023-02-27T00:23:39.446Z,3.10
2023-02-27T00:24:41.579Z,3.10
2023-02-27T00:25:43.378Z,3.30
2023-02-27T00:26:45.408Z,3.00
2023-02-27T00:27:54.131Z,3.00
2023-02-27T00:28:55.847Z,3.20
2023-02-27T00:29:57.710Z,3.10
2023-02-27T00:30:59.808Z,2.90
2023-02-27T00:32:01.609Z,3.10
2023-02-27T00:33:04.279Z,3.10
2023-02-27T00:34:06.276Z,3.00
2023-02-27T00:35:10.695Z,3.30
2023-02-27T00:36:12.897Z,3.10
2023-02-27T00:37:15.107Z,3.10
2023-02-27T00:38:16.789Z,3.10
2023-02-27T00:39:19.029Z,3.10
2023-02-27T00:40:21.199Z,3.20
2023-02-27T00:41:22.885Z,2.80
2023-02-27T00:42:24.901Z,3.10
2023-02-27T00:43:30.577Z,3.20
2023-02-27T00:44:40.652Z,3.10
2023-02-27T00:45:42.830Z,3.10
2023-02-27T00:46:44.610Z,3.10
2023-02-27T00:47:47.140Z,3.10
2023-02-27T00:48:49.142Z,3.10
2023-02-27T00:49:59.800Z,3.10
2023-02-27T00:51:02.096Z,3.10
2023-02-27T00:52:03.944Z,3.10
2023-02-27T00:53:05.896Z,3.30
2023-02-27T00:54:07.741Z,3.20
2023-02-27T00:55:13.409Z,3.00
2023-02-27T00:56:16.643Z,2.80
2023-02-27T00:57:20.161Z,3.10
2023-02-27T00:58:22.250Z,2.60
2023-02-27T00:59:24.212Z,3.20
2023-02-27T01:00:26.445Z,3.10
2023-02-27T01:01:29.777Z,3.10
2023-02-27T01:02:33.664Z,3.20
2023-02-27T01:03:36.937Z,3.10
2023-02-27T01:04:40.216Z,3.40
2023-02-27T01:05:42.199Z,3.10
2023-02-27T01:06:44.368Z,3.20
2023-02-27T01:07:46.103Z,3.20
2023-02-27T01:08:49.203Z,3.10
2023-02-27T01:09:52.107Z,3.10
2023-02-27T01:10:57.773Z,3.10
2023-02-27T01:11:59.601Z,3.10
2023-02-27T01:13:01.289Z,2.70
2023-02-27T01:14:03.374Z,2.80
2023-02-27T01:15:07.104Z,3.10
2023-02-27T01:16:10.562Z,3.10
2023-02-27T01:17:12.682Z,3.20
2023-02-27T01:18:15.915Z,3.10
2023-02-27T01:19:17.769Z,3.00
2023-02-27T01:20:20.281Z,3.00
2023-02-27T01:21:22.357Z,3.00
2023-02-27T01:22:24.865Z,3.00
2023-02-27T01:23:26.813Z,3.10
2023-02-27T01:24:28.780Z,3.20
2023-02-27T01:25:30.740Z,3.10
2023-02-27T01:26:32.598Z,3.00
2023-02-27T01:27:37.401Z,3.20
2023-02-27T01:28:39.423Z,3.00
2023-02-27T01:29:42.049Z,2.80
2023-02-27T01:30:45.109Z,3.00
2023-02-27T01:31:51.765Z,3.10
2023-02-27T01:32:54.053Z,3.20
2023-02-27T01:33:55.878Z,2.90
2023-02-27T01:34:58.146Z,3.10
2023-02-27T01:36:00.222Z,3.00
2023-02-27T01:37:02.438Z,3.00
2023-02-27T01:38:04.230Z,3.10
2023-02-27T01:39:06.204Z,3.10
2023-02-27T01:40:11.555Z,3.10
2023-02-27T01:41:13.618Z,3.10
2023-02-27T01:42:25.870Z,3.20
2023-02-27T01:43:27.734Z,3.00
2023-02-27T01:44:31.541Z,3.00
2023-02-27T01:45:40.677Z,3.00
2023-02-27T01:46:42.912Z,3.20
2023-02-27T01:47:48.750Z,3.00
2023-02-27T01:48:54.394Z,3.00
2023-02-27T01:49:56.362Z,3.00
2023-02-27T01:51:03.779Z,3.10
2023-02-27T01:52:08.459Z,3.00
2023-02-27T01:53:11.568Z,3.00
2023-02-27T01:54:19.309Z,3.00
2023-02-27T01:55:22.903Z,3.00
2023-02-27T01:56:30.086Z,3.00
2023-02-27T01:57:32.350Z,3.00
2023-02-27T01:58:34.490Z,3.10
2023-02-27T01:59:38.906Z,2.60
2023-02-27T02:00:50.441Z,3.00
2023-02-27T02:01:54.839Z,3.00
2023-02-27T02:03:17.219Z,3.00
2023-02-27T02:04:29.811Z,3.00
2023-02-27T02:10:05.499Z,2.90
2023-02-27T02:11:09.380Z,3.10
2023-02-27T02:12:15.192Z,2.90
2023-02-27T02:13:18.846Z,3.10
2023-02-27T02:14:20.842Z,3.10
2023-02-27T02:15:31.909Z,2.90
2023-02-27T02:19:09.242Z,2.90
2023-02-27T02:20:43.978Z,2.90
2023-02-27T02:22:07.340Z,2.90
2023-02-27T02:23:59.503Z,2.90
2023-02-27T02:25:28.463Z,3.00
2023-02-27T02:26:40.054Z,3.00
2023-02-27T02:27:56.643Z,2.90
2023-02-27T02:29:17.518Z,3.00
2023-02-27T02:30:47.149Z,2.90
2023-02-27T02:32:36.164Z,2.70
2023-02-27T02:33:47.141Z,2.80
2023-02-27T02:35:05.417Z,2.70
2023-02-27T02:36:44.831Z,2.80
2023-02-27T02:37:58.847Z,2.80
2023-02-27T02:39:25.298Z,2.80
2023-02-27T02:40:50.142Z,2.80
2023-02-27T02:42:13.012Z,2.90
2023-02-27T02:43:42.211Z,2.70
2023-02-27T02:46:29.519Z,3.00
2023-02-27T02:48:01.712Z,2.80
2023-02-27T02:49:18.045Z,3.00
2023-02-27T02:50:24.959Z,2.80
2023-02-27T02:51:57.425Z,2.70
2023-02-27T02:53:37.817Z,2.80
2023-02-27T02:54:45.219Z,2.60
2023-02-27T02:55:49.239Z,2.80
2023-02-27T02:57:03.175Z,2.80
2023-02-27T02:58:33.911Z,2.70
2023-02-27T02:59:49.672Z,2.60
2023-02-27T03:01:16.769Z,2.90
2023-02-27T03:02:24.494Z,2.60
2023-02-27T03:03:34.708Z,2.80
2023-02-27T03:04:48.609Z,2.80
2023-02-27T03:05:57.315Z,2.90
2023-02-27T03:07:21.092Z,2.70
2023-02-27T03:08:28.189Z,2.30
2023-02-27T03:09:41.263Z,2.90
2023-02-27T03:10:54.280Z,2.60
2023-02-27T03:11:58.846Z,2.80
2023-02-27T03:13:14.594Z,2.70
2023-02-27T03:14:35.101Z,2.70
2023-02-27T03:15:45.293Z,2.70
2023-02-27T03:16:54.724Z,3.00
2023-02-27T03:18:06.239Z,2.90
2023-02-27T03:19:19.338Z,2.60
2023-02-27T03:20:26.456Z,2.80
2023-02-27T03:21:41.203Z,2.60
2023-02-27T03:22:48.815Z,2.80
2023-02-27T03:23:55.574Z,2.40
2023-02-27T03:25:03.556Z,2.70
2023-02-27T03:26:07.485Z,2.70
2023-02-27T03:27:12.041Z,2.70
2023-02-27T03:28:34.134Z,2.90
2023-02-27T03:29:58.451Z,2.70
2023-02-27T03:31:17.907Z,2.70
2023-02-27T03:32:37.376Z,2.70
2023-02-27T03:33:48.762Z,3.00
2023-02-27T03:34:51.873Z,2.90
2023-02-27T03:36:14.984Z,2.70
2023-02-27T03:37:48.764Z,2.80
2023-02-27T03:39:07.190Z,2.80
2023-02-27T03:40:37.898Z,2.80
2023-02-27T03:42:21.547Z,2.70
2023-02-27T03:43:44.501Z,2.80
2023-02-27T03:45:00.881Z,2.70
2023-02-27T03:46:17.433Z,2.70
2023-02-27T03:47:20.034Z,2.70
2023-02-27T03:48:21.807Z,2.80
2023-02-27T03:49:23.638Z,2.80
2023-02-27T03:50:25.412Z,2.70
2023-02-27T03:51:28.743Z,2.80
2023-02-27T03:52:35.562Z,2.70
2023-02-27T03:54:01.866Z,2.70
2023-02-27T03:55:16.612Z,2.80
2023-02-27T03:56:27.363Z,2.70
2023-02-27T03:57:35.141Z,2.90
2023-02-27T03:58:37.234Z,2.80
2023-02-27T03:59:40.506Z,2.80
2023-02-27T04:00:43.767Z,2.70
2023-02-27T04:01:47.004Z,2.70
2023-02-27T04:02:54.649Z,2.80
2023-02-27T04:04:02.432Z,2.80
2023-02-27T04:05:05.713Z,2.70
2023-02-27T04:06:27.567Z,2.60
2023-02-27T04:07:56.420Z,2.70
2023-02-27T04:09:28.403Z,2.70
2023-02-27T04:10:54.420Z,2.70
2023-02-27T04:12:20.408Z,2.80
2023-02-27T04:13:28.803Z,2.60
2023-02-27T04:15:01.732Z,2.60
2023-02-27T04:16:40.192Z,2.70
2023-02-27T04:18:06.080Z,2.60
2023-02-27T04:19:32.918Z,2.40
2023-02-27T04:21:03.658Z,2.50
2023-02-27T04:22:30.623Z,2.50
2023-02-27T04:23:56.281Z,2.60
2023-02-27T04:25:33.408Z,2.50
2023-02-27T04:26:52.876Z,2.40
2023-02-27T04:28:25.096Z,2.50
2023-02-27T04:29:55.133Z,2.40
2023-02-27T04:31:19.242Z,2.40
2023-02-27T04:32:52.018Z,2.60
2023-02-27T04:34:03.587Z,2.40
2023-02-27T04:35:12.000Z,2.50
2023-02-27T04:36:37.390Z,2.60
2023-02-27T04:37:53.232Z,2.40
2023-02-27T04:39:09.051Z,2.40
2023-02-27T04:40:16.733Z,2.60
2023-02-27T04:41:27.757Z,2.40
2023-02-27T04:42:33.164Z,2.40
2023-02-27T04:43:42.145Z,2.40
2023-02-27T04:44:45.154Z,2.70
2023-02-27T04:45:49.213Z,2.60
2023-02-27T04:46:55.050Z,2.40
2023-02-27T04:48:07.193Z,2.70
2023-02-27T04:49:15.448Z,2.60
2023-02-27T04:50:24.421Z,2.60
2023-02-27T04:51:33.354Z,2.50
2023-02-27T04:52:43.631Z,2.40
2023-02-27T04:53:54.262Z,2.40
2023-02-27T04:55:03.019Z,2.70
2023-02-27T04:56:10.655Z,2.40
2023-02-27T04:57:21.349Z,2.50
2023-02-27T04:58:36.441Z,2.80
2023-02-27T04:59:43.595Z,2.50
2023-02-27T05:00:52.699Z,2.50
2023-02-27T05:02:02.115Z,2.50
2023-02-27T05:03:12.641Z,2.40
2023-02-27T05:04:19.606Z,2.60
2023-02-27T05:05:28.410Z,2.40
2023-02-27T05:06:35.253Z,2.60
2023-02-27T05:07:48.790Z,2.40
2023-02-27T05:09:21.124Z,2.60
2023-02-27T05:10:33.543Z,2.40
2023-02-27T05:11:50.689Z,2.70
2023-02-27T05:12:59.436Z,2.60
2023-02-27T05:14:12.317Z,2.40
2023-02-27T05:15:24.608Z,2.50
2023-02-27T05:16:33.433Z,2.50
2023-02-27T05:17:49.541Z,2.40
2023-02-27T05:18:53.846Z,2.50
2023-02-27T05:19:56.160Z,2.60
2023-02-27T05:21:23.158Z,2.60
2023-02-27T05:22:41.499Z,2.40
2023-02-27T05:24:16.678Z,2.50
2023-02-27T05:25:31.020Z,2.60
2023-02-27T05:26:55.676Z,2.50
2023-02-27T05:28:04.382Z,2.50
2023-02-27T05:29:27.670Z,2.50
2023-02-27T05:30:40.901Z,2.30
2023-02-27T05:31:50.889Z,2.70
2023-02-27T05:33:19.333Z,2.40
2023-02-27T05:34:27.137Z,2.50
2023-02-27T05:35:35.264Z,2.50
2023-02-27T05:36:48.438Z,2.40
2023-02-27T05:37:55.362Z,2.50
2023-02-27T05:39:01.549Z,2.50
2023-02-27T05:40:08.649Z,2.40
2023-02-27T05:41:34.444Z,2.40
2023-02-27T05:42:45.055Z,2.30
2023-02-27T05:43:50.479Z,2.40
2023-02-27T05:44:58.927Z,2.50
2023-02-27T05:46:06.445Z,2.40
2023-02-27T05:47:20.478Z,2.50
2023-02-27T05:48:41.552Z,2.50
2023-02-27T05:49:48.742Z,2.30
2023-02-27T05:50:52.844Z,2.40
2023-02-27T05:51:58.650Z,2.40
2023-02-27T05:53:06.601Z,2.40
2023-02-27T05:54:24.190Z,2.50
2023-02-27T05:55:37.066Z,2.40
2023-02-27T05:56:43.287Z,2.40
2023-02-27T05:58:06.842Z,2.50
2023-02-27T05:59:14.752Z,2.50
2023-02-27T06:00:23.689Z,2.40
2023-02-27T06:02:43.384Z,2.60
2023-02-27T06:03:45.262Z,2.40
2023-02-27T06:04:47.040Z,2.30
2023-02-27T06:05:53.328Z,2.40
2023-02-27T06:06:57.442Z,2.60
2023-02-27T06:08:01.110Z,2.40
2023-02-27T06:09:03.219Z,2.30
2023-02-27T06:10:06.385Z,2.50
2023-02-27T06:11:10.526Z,2.30
2023-02-27T06:12:13.401Z,2.30
2023-02-27T06:13:15.538Z,2.40
2023-02-27T06:14:17.229Z,2.40
2023-02-27T06:15:19.691Z,2.40
2023-02-27T06:16:21.422Z,2.30
2023-02-27T06:17:23.239Z,2.60
2023-02-27T06:18:24.950Z,2.50
2023-02-27T06:19:26.607Z,2.50
2023-02-27T06:20:29.500Z,2.30
2023-02-27T06:21:33.720Z,2.60
2023-02-27T06:22:35.710Z,2.60
2023-02-27T06:23:37.598Z,2.50
2023-02-27T06:24:41.315Z,2.50
2023-02-27T06:25:43.062Z,2.50
2023-02-27T06:26:45.217Z,2.60
2023-02-27T06:27:49.759Z,2.70
2023-02-27T06:28:51.905Z,2.50
2023-02-27T06:29:54.588Z,2.60
2023-02-27T06:30:57.517Z,2.60
2023-02-27T06:31:59.933Z,2.70
2023-02-27T06:33:02.442Z,2.50
2023-02-27T06:34:04.790Z,2.50
2023-02-27T06:35:07.359Z,2.40
2023-02-27T06:36:09.112Z,2.60
2023-02-27T06:37:10.831Z,2.50
2023-02-27T06:38:12.964Z,2.50
2023-02-27T06:39:22.041Z,2.50
2023-02-27T06:40:25.801Z,2.70
2023-02-27T06:41:28.614Z,2.60
2023-02-27T06:42:30.294Z,2.60
2023-02-27T06:43:37.682Z,2.60
2023-02-27T06:44:39.706Z,2.50
2023-02-27T06:45:41.428Z,2.50
2023-02-27T06:46:43.398Z,2.50
2023-02-27T06:47:47.090Z,2.60
2023-02-27T06:48:48.804Z,2.80
2023-02-27T06:49:51.899Z,2.60
2023-02-27T06:50:56.559Z,2.50
2023-02-27T06:51:58.314Z,2.70
2023-02-27T06:53:02.639Z,2.80
2023-02-27T06:54:04.459Z,2.80
2023-02-27T06:55:10.620Z,2.60
2023-02-27T06:56:12.731Z,2.70
2023-02-27T06:57:14.751Z,2.70
2023-02-27T06:58:17.066Z,2.80
2023-02-27T06:59:19.084Z,2.70
2023-02-27T07:00:21.168Z,2.80
2023-02-27T07:01:25.288Z,2.80
2023-02-27T07:02:27.321Z,2.70
2023-02-27T07:03:29.507Z,2.70
2023-02-27T07:04:33.392Z,2.90
2023-02-27T07:05:35.238Z,2.90
2023-02-27T07:07:34.282Z,2.80
2023-02-27T07:08:01.447Z,2.60
2023-02-27T07:09:06.458Z,2.70
2023-02-27T07:10:11.974Z,2.80
2023-02-27T07:11:15.473Z,2.80
2023-02-27T07:12:17.278Z,2.90
2023-02-27T07:13:19.871Z,2.70
2023-02-27T07:14:21.887Z,2.90
2023-02-27T07:15:26.157Z,2.90
2023-02-27T07:16:28.088Z,2.80
2023-02-27T07:17:30.140Z,2.70
2023-02-27T07:18:32.117Z,2.70
2023-02-27T07:19:35.909Z,2.70
2023-02-27T07:20:37.623Z,2.70
2023-02-27T07:21:50.134Z,2.90
2023-02-27T07:22:52.260Z,2.80
2023-02-27T07:23:53.940Z,2.70
2023-02-27T07:24:55.905Z,2.90
2023-02-27T07:25:57.640Z,2.50
2023-02-27T07:26:59.633Z,2.90
2023-02-27T07:28:01.357Z,3.00
2023-02-27T07:29:06.866Z,2.90
2023-02-27T07:30:09.852Z,2.90
2023-02-27T07:31:11.880Z,2.90
2023-02-27T07:32:13.865Z,2.90
2023-02-27T07:33:16.585Z,2.90
2023-02-27T07:34:18.355Z,3.00
2023-02-27T07:35:20.567Z,3.00
2023-02-27T07:36:22.690Z,3.00
2023-02-27T07:37:26.336Z,3.10
2023-02-27T07:38:29.492Z,2.90
2023-02-27T07:39:31.170Z,2.90
2023-02-27T07:40:33.066Z,3.00
2023-02-27T07:41:35.119Z,3.00
2023-02-27T07:42:36.915Z,3.10
2023-02-27T07:43:38.567Z,3.20
2023-02-27T07:44:40.934Z,3.00
2023-02-27T07:45:43.050Z,3.20
2023-02-27T07:46:45.013Z,3.10
2023-02-27T07:47:47.355Z,3.10
2023-02-27T07:48:48.974Z,3.00
2023-02-27T07:49:50.694Z,3.20
2023-02-27T07:50:54.078Z,3.20
2023-02-27T07:51:56.575Z,3.10
2023-02-27T07:52:58.294Z,3.30
2023-02-27T07:54:00.005Z,3.10
2023-02-27T07:55:01.758Z,3.10
2023-02-27T07:56:03.459Z,3.30
2023-02-27T07:57:06.628Z,3.20
2023-02-27T07:58:08.324Z,3.20
2023-02-27T07:59:10.075Z,3.20
2023-02-27T08:00:12.335Z,3.30
2023-02-27T08:01:14.001Z,3.40
2023-02-27T08:02:15.997Z,3.10
2023-02-27T08:03:17.940Z,3.30
2023-02-27T08:04:19.875Z,3.30
2023-02-27T08:05:21.851Z,3.40
2023-02-27T08:06:25.607Z,3.20
2023-02-27T08:07:27.645Z,3.20
2023-02-27T08:08:29.962Z,3.30
2023-02-27T08:09:31.916Z,3.50
2023-02-27T08:10:33.698Z,3.30
2023-02-27T08:11:35.415Z,3.30
2023-02-27T08:12:37.253Z,3.60
2023-02-27T08:14:01.480Z,3.30
2023-02-27T08:15:02.365Z,3.30
2023-02-27T08:16:07.569Z,3.30
2023-02-27T08:17:09.786Z,3.40
2023-02-27T08:18:11.715Z,3.30
2023-02-27T08:19:14.969Z,3.60
2023-02-27T08:20:17.217Z,3.40
2023-02-27T08:21:40.061Z,3.10
2023-02-27T08:22:43.862Z,3.20
2023-02-27T08:23:45.812Z,3.60
2023-02-27T08:24:48.173Z,3.10
2023-02-27T08:25:49.913Z,3.20
2023-02-27T08:26:51.595Z,3.50
2023-02-27T08:27:53.525Z,3.70
2023-02-27T08:28:55.141Z,3.10
2023-02-27T08:29:58.797Z,3.50
2023-02-27T08:31:01.463Z,3.50
2023-02-27T08:32:05.106Z,3.70
2023-02-27T08:33:07.616Z,3.50
2023-02-27T08:34:10.837Z,3.50
2023-02-27T08:35:13.287Z,3.10
2023-02-27T08:36:15.531Z,3.30
2023-02-27T08:37:17.187Z,3.60
2023-02-27T08:38:19.114Z,3.70
2023-02-27T08:39:24.218Z,3.60
2023-02-27T08:40:26.424Z,3.40
2023-02-27T08:41:28.723Z,3.80
2023-02-27T08:42:30.355Z,3.50
2023-02-27T08:43:35.217Z,3.80
2023-02-27T08:44:37.250Z,3.90
2023-02-27T08:45:39.220Z,3.90
2023-02-27T08:46:41.338Z,3.90
2023-02-27T08:47:48.199Z,3.90
2023-02-27T08:48:51.816Z,3.90
2023-02-27T08:49:53.975Z,4.00
2023-02-27T08:50:57.784Z,4.00
2023-02-27T08:51:59.930Z,4.00
2023-02-27T08:53:01.592Z,4.00
2023-02-27T08:54:05.644Z,4.10
2023-02-27T08:55:08.384Z,4.10
2023-02-27T08:56:10.348Z,4.20
2023-02-27T08:57:13.455Z,4.10
2023-02-27T08:58:18.203Z,4.20
2023-02-27T08:59:20.536Z,4.20
2023-02-27T09:00:22.993Z,4.30
2023-02-27T09:01:29.136Z,4.20
2023-02-27T09:02:31.267Z,4.30
2023-02-27T09:03:33.015Z,4.30
2023-02-27T09:04:34.943Z,4.30
2023-02-27T09:05:37.635Z,4.30
2023-02-27T09:06:40.451Z,4.30
2023-02-27T09:07:42.818Z,4.40
2023-02-27T09:08:44.632Z,4.30
2023-02-27T09:09:48.578Z,4.30
2023-02-27T09:10:51.791Z,4.30
2023-02-27T09:11:54.039Z,4.40
2023-02-27T09:12:55.964Z,4.30
2023-02-27T09:14:03.160Z,4.30
2023-02-27T09:15:06.959Z,4.40
2023-02-27T09:16:11.833Z,4.40
2023-02-27T09:17:15.261Z,4.40
2023-02-27T09:18:20.639Z,4.40
2023-02-27T09:19:22.504Z,4.40
2023-02-27T09:20:26.742Z,4.40
2023-02-27T09:21:29.971Z,4.40
2023-02-27T09:22:31.744Z,4.40
2023-02-27T09:23:33.713Z,4.50
2023-02-27T09:24:35.412Z,4.50
2023-02-27T09:25:37.464Z,4.50
2023-02-27T09:26:45.407Z,4.60
2023-02-27T09:27:47.906Z,4.60
2023-02-27T09:28:49.674Z,4.70
2023-02-27T09:29:56.367Z,4.70
2023-02-27T09:31:11.836Z,4.70
2023-02-27T09:32:13.948Z,4.70
2023-02-27T09:33:17.999Z,4.70
2023-02-27T09:34:20.051Z,4.70
2023-02-27T09:35:22.312Z,4.70
2023-02-27T09:36:24.890Z,4.70
2023-02-27T09:37:26.679Z,4.70
2023-02-27T09:38:29.184Z,4.80
2023-02-27T09:39:31.000Z,4.80
2023-02-27T09:40:38.764Z,4.80
2023-02-27T09:41:59.504Z,4.90
2023-02-27T09:43:09.485Z,4.90
2023-02-27T09:44:45.346Z,5.00
2023-02-27T09:45:55.069Z,5.00
2023-02-27T09:46:59.243Z,5.00
2023-02-27T09:48:06.837Z,4.80
2023-02-27T09:49:15.442Z,5.10
2023-02-27T09:50:40.896Z,5.10
2023-02-27T09:51:43.029Z,5.20
2023-02-27T09:52:47.565Z,5.20
2023-02-27T09:54:01.194Z,5.20
2023-02-27T09:55:07.109Z,5.20
2023-02-27T09:56:28.691Z,5.30
2023-02-27T09:57:46.459Z,5.30
2023-02-27T09:58:56.283Z,5.30
2023-02-27T10:00:08.614Z,5.30
2023-02-27T10:01:16.930Z,5.30
2023-02-27T10:02:35.900Z,5.30
2023-02-27T10:03:50.329Z,5.30
2023-02-27T10:05:03.805Z,5.30
2023-02-27T10:06:18.056Z,5.30
2023-02-27T10:07:57.835Z,5.40
2023-02-27T10:09:26.877Z,5.40
2023-02-27T10:10:40.692Z,5.40
2023-02-27T10:12:08.145Z,5.40
2023-02-27T10:13:48.456Z,5.50
2023-02-27T10:15:10.501Z,5.50
2023-02-27T10:16:19.253Z,5.50
2023-02-27T10:17:44.719Z,5.50
2023-02-27T10:18:59.581Z,5.50
2023-02-27T10:20:09.286Z,5.50
2023-02-27T10:21:17.401Z,5.60
2023-02-27T10:22:25.812Z,5.60
2023-02-27T10:23:44.947Z,5.60
2023-02-27T10:25:15.048Z,5.60
2023-02-27T10:26:30.264Z,5.70
2023-02-27T10:27:33.815Z,5.70
2023-02-27T10:28:37.140Z,5.70
2023-02-27T10:29:41.860Z,5.80
2023-02-27T10:30:49.469Z,5.80
2023-02-27T10:32:14.889Z,5.90
2023-02-27T10:33:28.423Z,5.90
2023-02-27T10:34:32.899Z,5.90
2023-02-27T10:35:37.876Z,6.00
2023-02-27T10:36:41.191Z,5.90
2023-02-27T10:37:51.090Z,5.90
2023-02-27T10:38:58.489Z,5.90
2023-02-27T10:40:06.490Z,5.90
2023-02-27T10:41:14.081Z,5.90
2023-02-27T10:42:17.317Z,5.90
2023-02-27T10:43:20.851Z,5.90
2023-02-27T10:44:24.829Z,5.90
2023-02-27T10:45:27.044Z,5.90
2023-02-27T10:46:35.413Z,5.90
2023-02-27T10:47:39.193Z,5.90
2023-02-27T10:48:46.233Z,5.90
2023-02-27T10:49:49.127Z,6.00
2023-02-27T10:50:52.542Z,6.00
2023-02-27T10:52:15.175Z,6.00
2023-02-27T10:53:25.859Z,6.00
2023-02-27T10:54:27.648Z,6.00
2023-02-27T10:55:41.655Z,6.00
2023-02-27T10:56:52.885Z,6.10
2023-02-27T10:57:57.955Z,6.10
2023-02-27T10:59:23.741Z,6.10
2023-02-27T11:00:40.483Z,6.20
2023-02-27T11:02:09.521Z,6.20
2023-02-27T11:03:29.842Z,6.20
2023-02-27T11:04:40.585Z,6.20
2023-02-27T11:05:52.433Z,6.20
2023-02-27T11:06:55.603Z,6.20
2023-02-27T11:08:13.556Z,6.20
2023-02-27T11:09:28.043Z,6.20
2023-02-27T11:10:30.462Z,6.30
2023-02-27T11:11:35.179Z,6.30
2023-02-27T11:12:36.967Z,6.30
2023-02-27T11:13:43.902Z,6.30
2023-02-27T11:15:01.237Z,6.40
2023-02-27T11:16:13.710Z,6.40
2023-02-27T11:17:44.286Z,6.40
2023-02-27T11:18:54.606Z,6.40
2023-02-27T11:19:58.204Z,6.30
2023-02-27T11:21:13.057Z,6.30
2023-02-27T11:22:20.296Z,6.30
2023-02-27T11:23:25.067Z,6.30
2023-02-27T11:24:27.653Z,6.30
2023-02-27T11:25:29.620Z,6.30
2023-02-27T11:26:34.905Z,6.40
2023-02-27T11:27:36.666Z,6.40
2023-02-27T11:28:40.834Z,6.50
2023-02-27T11:30:00.982Z,6.60
2023-02-27T11:31:15.511Z,6.60
2023-02-27T11:32:17.703Z,6.70
2023-02-27T11:33:24.014Z,6.70
2023-02-27T11:34:28.768Z,6.70
2023-02-27T11:35:36.543Z,6.70
2023-02-27T11:36:39.810Z,6.80
2023-02-27T11:37:42.269Z,6.80
2023-02-27T11:38:54.772Z,6.90
2023-02-27T11:40:19.802Z,6.90
2023-02-27T11:41:32.304Z,7.00
2023-02-27T11:42:36.156Z,7.00
2023-02-27T11:43:47.207Z,7.10
2023-02-27T11:44:57.150Z,7.10
2023-02-27T11:46:46.194Z,7.10
2023-02-27T11:47:33.565Z,7.10
2023-02-27T11:48:39.679Z,7.10
2023-02-27T11:50:19.484Z,7.10
2023-02-27T11:51:49.817Z,7.20
2023-02-27T11:53:16.433Z,7.20
2023-02-27T11:54:36.538Z,7.30
2023-02-27T11:55:38.604Z,7.30
2023-02-27T11:56:44.182Z,7.40
2023-02-27T11:57:50.317Z,7.40
2023-02-27T11:59:19.153Z,7.40
2023-02-27T12:00:29.684Z,7.50
2023-02-27T12:01:47.965Z,7.60
2023-02-27T12:03:14.867Z,7.60
2023-02-27T12:04:45.110Z,7.70
2023-02-27T12:05:55.463Z,7.70
2023-02-27T12:07:40.739Z,7.70
2023-02-27T12:08:50.120Z,7.70
2023-02-27T12:10:11.978Z,7.60
2023-02-27T12:11:30.907Z,7.50
2023-02-27T12:13:06.356Z,7.50
2023-02-27T12:14:32.335Z,7.50
2023-02-27T12:15:56.822Z,7.40
2023-02-27T12:17:15.168Z,7.30
2023-02-27T12:18:23.761Z,7.20
2023-02-27T12:19:41.362Z,7.20
2023-02-27T12:20:55.542Z,7.10
2023-02-27T12:22:03.612Z,7.30
2023-02-27T12:23:17.659Z,7.10
2023-02-27T12:24:40.874Z,7.10
2023-02-27T12:25:46.995Z,7.10
2023-02-27T12:27:17.068Z,7.10
2023-02-27T12:28:23.354Z,7.20
2023-02-27T12:29:55.146Z,7.30
2023-02-27T12:31:12.211Z,7.30
2023-02-27T12:32:44.074Z,7.40
2023-02-27T12:33:55.404Z,7.40
2023-02-27T12:35:06.530Z,7.50
2023-02-27T12:36:14.538Z,7.60
2023-02-27T12:37:27.953Z,7.60
2023-02-27T12:38:30.169Z,7.60
2023-02-27T12:39:33.693Z,7.70
2023-02-27T12:40:47.350Z,7.70
2023-02-27T12:41:59.278Z,7.70
2023-02-27T12:43:11.018Z,7.80
2023-02-27T12:44:42.049Z,7.90
2023-02-27T12:45:50.151Z,7.90
2023-02-27T12:47:17.287Z,8.00
2023-02-27T12:48:24.221Z,8.00
2023-02-27T12:49:35.296Z,8.10
2023-02-27T12:51:14.526Z,8.10
2023-02-27T12:52:43.478Z,8.20
2023-02-27T12:54:22.757Z,8.30
2023-02-27T12:55:29.848Z,8.40
2023-02-27T12:56:48.831Z,8.40
2023-02-27T12:58:09.460Z,8.50
2023-02-27T12:59:34.174Z,8.50
2023-02-27T13:01:09.732Z,8.50
2023-02-27T13:02:30.478Z,8.40
2023-02-27T13:03:59.421Z,8.40
2023-02-27T13:05:10.331Z,8.40
2023-02-27T13:06:29.756Z,8.40
2023-02-27T13:07:39.855Z,8.50
2023-02-27T13:08:58.529Z,8.40
2023-02-27T13:10:23.344Z,8.30
2023-02-27T13:11:59.978Z,8.30
2023-02-27T13:13:12.529Z,8.30
2023-02-27T13:14:39.587Z,8.30
2023-02-27T13:15:54.102Z,8.30
2023-02-27T13:17:03.020Z,8.30
2023-02-27T13:18:09.392Z,8.30
2023-02-27T13:19:45.240Z,8.30
2023-02-27T13:20:54.028Z,8.30
2023-02-27T13:22:02.707Z,8.40
2023-02-27T13:23:18.337Z,8.40
2023-02-27T13:24:28.989Z,8.50
2023-02-27T13:25:34.813Z,8.60
2023-02-27T13:26:41.789Z,8.60
2023-02-27T13:27:54.605Z,8.70
2023-02-27T13:28:58.095Z,8.80
2023-02-27T13:30:30.028Z,8.80
2023-02-27T13:31:40.359Z,8.80
2023-02-27T13:33:22.479Z,8.80
2023-02-27T13:34:39.697Z,8.90
2023-02-27T13:36:11.872Z,8.90
2023-02-27T13:37:14.119Z,8.90
2023-02-27T13:38:40.378Z,8.80
2023-02-27T13:39:45.784Z,8.80
2023-02-27T13:40:47.579Z,8.80
2023-02-27T13:41:49.600Z,8.80
2023-02-27T13:42:55.556Z,8.80
2023-02-27T13:44:00.167Z,8.80
2023-02-27T13:45:25.890Z,8.90
2023-02-27T13:46:29.197Z,8.80
2023-02-27T13:47:30.868Z,8.80
2023-02-27T13:48:40.249Z,8.80
2023-02-27T13:49:44.812Z,8.70
2023-02-27T13:50:46.430Z,8.50
2023-02-27T13:51:53.396Z,8.40
2023-02-27T13:52:55.395Z,8.30
2023-02-27T13:54:07.554Z,8.30
2023-02-27T13:55:27.627Z,8.20
2023-02-27T13:56:29.707Z,8.10
2023-02-27T13:57:37.393Z,8.00
2023-02-27T13:58:39.501Z,7.90
2023-02-27T13:59:44.278Z,7.90
2023-02-27T14:00:55.968Z,7.80
2023-02-27T14:02:05.055Z,7.70
2023-02-27T14:03:09.023Z,7.70
2023-02-27T14:04:18.939Z,7.60
2023-02-27T14:05:31.276Z,7.50
2023-02-27T14:06:49.270Z,7.40
2023-02-27T14:08:05.722Z,7.40
2023-02-27T14:09:15.240Z,7.40
2023-02-27T14:10:26.316Z,7.40
2023-02-27T14:11:33.046Z,7.50
2023-02-27T14:12:45.902Z,7.60
2023-02-27T14:13:51.123Z,7.70
2023-02-27T14:14:53.204Z,7.80
2023-02-27T14:15:57.044Z,7.90
2023-02-27T14:16:59.598Z,8.00
2023-02-27T14:18:14.273Z,8.10
2023-02-27T14:19:19.717Z,8.20
2023-02-27T14:20:30.899Z,8.30
2023-02-27T14:21:51.962Z,8.40
2023-02-27T14:23:16.154Z,8.50
2023-02-27T14:24:25.907Z,8.60
2023-02-27T14:25:56.476Z,8.70
2023-02-27T14:27:00.561Z,8.70
2023-02-27T14:28:04.428Z,8.70
2023-02-27T14:29:07.149Z,8.60
2023-02-27T14:30:33.548Z,8.50
2023-02-27T14:31:40.497Z,8.50
2023-02-27T14:32:42.581Z,8.40
2023-02-27T14:33:46.815Z,8.30
2023-02-27T14:34:49.415Z,8.20
2023-02-27T14:35:58.917Z,8.20
2023-02-27T14:37:06.195Z,8.10
2023-02-27T14:38:15.749Z,8.10
2023-02-27T14:39:23.638Z,8.10
2023-02-27T14:40:35.097Z,8.00
2023-02-27T14:42:00.058Z,7.90
2023-02-27T14:43:16.314Z,7.90
2023-02-27T14:44:20.242Z,7.80
2023-02-27T14:45:25.281Z,7.70
2023-02-27T14:46:37.519Z,7.70
2023-02-27T14:47:40.912Z,7.70
2023-02-27T14:48:42.778Z,7.70
2023-02-27T14:49:47.655Z,7.70
2023-02-27T14:50:58.061Z,7.70
2023-02-27T14:52:20.427Z,7.70
2023-02-27T14:53:27.945Z,7.60
2023-02-27T14:54:30.007Z,7.60
2023-02-27T14:55:33.662Z,7.50
2023-02-27T14:56:37.738Z,7.50
2023-02-27T14:57:40.104Z,7.50
2023-02-27T14:58:55.550Z,7.50
2023-02-27T15:00:05.880Z,7.60
2023-02-27T15:01:10.531Z,7.70
2023-02-27T15:02:26.209Z,7.80
2023-02-27T15:03:46.933Z,7.90
2023-02-27T15:05:14.003Z,7.80
2023-02-27T15:06:40.296Z,7.70
2023-02-27T15:07:46.923Z,7.70
2023-02-27T15:08:52.094Z,7.60
2023-02-27T15:09:57.384Z,7.60
2023-02-27T15:11:00.592Z,7.50
2023-02-27T15:12:05.052Z,7.40
2023-02-27T15:13:07.110Z,7.40
2023-02-27T15:14:08.880Z,7.30
2023-02-27T15:15:18.325Z,7.30
2023-02-27T15:16:23.293Z,7.20
2023-02-27T15:17:28.805Z,7.20
2023-02-27T15:18:32.603Z,7.10
2023-02-27T15:19:37.225Z,7.10
2023-02-27T15:20:39.383Z,7.00
2023-02-27T15:21:50.758Z,7.00
2023-02-27T15:22:53.364Z,7.00
2023-02-27T15:24:04.734Z,7.10
2023-02-27T15:25:09.772Z,7.10
2023-02-27T15:26:14.863Z,7.10
2023-02-27T15:27:20.715Z,7.00
2023-02-27T15:28:25.088Z,7.00
2023-02-27T15:29:43.489Z,7.00
2023-02-27T15:30:53.540Z,6.90
2023-02-27T15:31:56.167Z,6.90
2023-02-27T15:32:59.406Z,6.90
2023-02-27T15:34:02.824Z,6.90